Etusivu
METAR-TAF:

METAR-TAF

Lentoasemat :

Ouagadougou, Burkina Faso

Ouagadougoun kansainvälinen lentoasema

Leveyspiiri: 12-21N, Pituuspiiri: 001-31W, korkeus merenpinnasta: 316 m

Tämänhetkinen sää

Tämä raportti tehtiin 47 minuuttia sitten, kello 00.00 UTC
tyyntä
Lämpötila 27°C
Kosteus 24%
Ilmanpaine 1010 hPa
Näkyvyys 10 km tai enemmän
ei pilviä alle 1500 m:ssä eikä cumulonimbus-pilviä

METAR: DFFD 300000Z 00000KT CAVOK 27/05 Q1010 NOSIG

Aika: 00:47 (00:47 UTC)

Sääennuste

Tämä raportti tehtiin 1 tunti ja 47 minuuttia sitten, kello 23.00 UTC
Ennuste voimassa 30. päivästä klo 00 UTC - 31. päivään klo 06 UTC
Tuuli 6 kn kaakosta puuskistuen 16 kn:hen
Näkyvyys: 8000 m
Ajoittain
30. päivästä klo 06 UTC - 30. päivään klo 10 UTC
Näkyvyys: 4000 m
usvaa
Ajoittain
30. päivästä klo 17 UTC - 30. päivään klo 20 UTC
Näkyvyys: 4000 m
usvaa

TAF: DFFD 292300Z 3000/3106 14006G16KT 8000 NSC TEMPO 3006/3010 4000 HZ TEMPO 3017/3020 4000 HZ

Säähavainnot ja -ennusteet yli 4000 lentoasemalta (METAR- ja TAF-raportit).

Käytössä olevat sääasemat on merkitty karttaan keltaisilla ja punaisilla pisteillä.

Aseta hiiri pisteen päälle nähdäksesi sääaseman nimen.

Klikkaa sitten nähdäksesi säähavainnot ja -ennusteet.

Kartan vaihtaminen: klikkaa mustalla rastilla varustettuja vihreitä pisteitä, niin voit zoomata sisään; viivalla varustettua vihreää pistettä, niin voit zoomata ulos tai vihreitä nuolia, niin pääset viereisille kartoille.


METAR-TAF: